sensor_id;sensor_type;location;lat;lon;timestamp;pressure;altitude;pressure_sealevel;temperature;humidity
54850;BME280;47660;51.334;12.396;2023-10-08T00:02:26;100330.47;;;31.86;37.69
54850;BME280;47660;51.334;12.396;2023-10-08T00:04:53;100328.66;;;31.68;37.55
54850;BME280;47660;51.334;12.396;2023-10-08T00:07:22;100332.75;;;30.80;39.05
54850;BME280;47660;51.334;12.396;2023-10-08T00:09:49;100340.25;;;30.55;39.64
54850;BME280;47660;51.334;12.396;2023-10-08T00:12:21;100339.34;;;30.61;39.67
54850;BME280;47660;51.334;12.396;2023-10-08T00:14:47;100339.41;;;30.54;39.71
54850;BME280;47660;51.334;12.396;2023-10-08T00:17:16;100336.75;;;31.39;38.40
54850;BME280;47660;51.334;12.396;2023-10-08T00:19:42;100337.81;;;31.38;38.20
54850;BME280;47660;51.334;12.396;2023-10-08T00:22:11;100341.44;;;31.62;38.48
54850;BME280;47660;51.334;12.396;2023-10-08T00:24:39;100336.88;;;31.56;38.35
54850;BME280;47660;51.334;12.396;2023-10-08T00:27:07;100339.63;;;31.56;38.46
54850;BME280;47660;51.334;12.396;2023-10-08T00:29:34;100339.41;;;31.69;38.88
54850;BME280;47660;51.334;12.396;2023-10-08T00:32:04;100345.84;;;30.97;39.46
54850;BME280;47660;51.334;12.396;2023-10-08T00:34:37;100346.31;;;31.36;39.05
54850;BME280;47660;51.334;12.396;2023-10-08T00:37:06;100343.34;;;31.07;39.16
54850;BME280;47660;51.334;12.396;2023-10-08T00:39:34;100353.91;;;30.61;40.34
54850;BME280;47660;51.334;12.396;2023-10-08T00:42:02;100358.78;;;30.78;40.01
54850;BME280;47660;51.334;12.396;2023-10-08T00:44:29;100343.84;;;30.74;40.33
54850;BME280;47660;51.334;12.396;2023-10-08T00:46:59;100352.22;;;31.76;39.17
54850;BME280;47660;51.334;12.396;2023-10-08T00:49:27;100348.19;;;30.93;40.22
54850;BME280;47660;51.334;12.396;2023-10-08T00:52:11;100342.34;;;31.20;40.01
54850;BME280;47660;51.334;12.396;2023-10-08T00:54:38;100347.53;;;31.52;39.29
54850;BME280;47660;51.334;12.396;2023-10-08T00:57:15;100353.31;;;30.90;40.62
54850;BME280;47660;51.334;12.396;2023-10-08T00:59:46;100351.53;;;30.65;40.82
54850;BME280;47660;51.334;12.396;2023-10-08T01:02:17;100356.22;;;31.25;39.52
54850;BME280;47660;51.334;12.396;2023-10-08T01:04:46;100362.06;;;31.41;38.88
54850;BME280;47660;51.334;12.396;2023-10-08T01:07:12;100356.38;;;31.66;39.30
54850;BME280;47660;51.334;12.396;2023-10-08T01:09:39;100371.00;;;31.79;39.06
54850;BME280;47660;51.334;12.396;2023-10-08T01:14:34;100385.63;;;31.49;39.46
54850;BME280;47660;51.334;12.396;2023-10-08T01:17:00;100388.63;;;30.49;41.34
54850;BME280;47660;51.334;12.396;2023-10-08T01:19:26;100382.06;;;30.87;41.18
54850;BME280;47660;51.334;12.396;2023-10-08T01:21:52;100389.72;;;30.66;41.68
54850;BME280;47660;51.334;12.396;2023-10-08T01:24:17;100406.06;;;29.34;45.09
54850;BME280;47660;51.334;12.396;2023-10-08T01:26:45;100406.44;;;29.13;46.18
54850;BME280;47660;51.334;12.396;2023-10-08T01:29:13;100400.38;;;29.93;45.00
54850;BME280;47660;51.334;12.396;2023-10-08T01:31:45;100422.44;;;29.48;46.21
54850;BME280;47660;51.334;12.396;2023-10-08T01:34:11;100434.78;;;28.66;47.58
54850;BME280;47660;51.334;12.396;2023-10-08T01:36:41;100424.50;;;28.61;47.57
54850;BME280;47660;51.334;12.396;2023-10-08T01:39:09;100425.50;;;28.81;47.29
54850;BME280;47660;51.334;12.396;2023-10-08T01:41:40;100414.41;;;28.62;47.08
54850;BME280;47660;51.334;12.396;2023-10-08T01:44:05;100421.22;;;28.33;48.11
54850;BME280;47660;51.334;12.396;2023-10-08T01:46:33;100422.91;;;27.53;51.26
54850;BME280;47660;51.334;12.396;2023-10-08T01:49:00;100457.91;;;27.29;51.36
54850;BME280;47660;51.334;12.396;2023-10-08T01:51:29;100458.38;;;25.99;54.09
54850;BME280;47660;51.334;12.396;2023-10-08T01:54:03;100459.19;;;26.84;51.83
54850;BME280;47660;51.334;12.396;2023-10-08T01:56:35;100476.75;;;27.17;50.12
54850;BME280;47660;51.334;12.396;2023-10-08T01:59:00;100480.88;;;27.62;48.82
54850;BME280;47660;51.334;12.396;2023-10-08T02:01:25;100495.81;;;27.10;49.47
54850;BME280;47660;51.334;12.396;2023-10-08T02:03:51;100493.72;;;26.71;51.33
54850;BME280;47660;51.334;12.396;2023-10-08T02:06:16;100528.41;;;27.25;48.74
54850;BME280;47660;51.334;12.396;2023-10-08T02:08:41;100535.72;;;26.26;51.92
54850;BME280;47660;51.334;12.396;2023-10-08T02:11:07;100545.56;;;26.49;51.14
54850;BME280;47660;51.334;12.396;2023-10-08T02:13:33;100547.28;;;25.33;54.47
54850;BME280;47660;51.334;12.396;2023-10-08T02:16:00;100540.38;;;26.32;52.53
54850;BME280;47660;51.334;12.396;2023-10-08T02:18:25;100551.28;;;26.10;52.59
54850;BME280;47660;51.334;12.396;2023-10-08T02:20:51;100557.59;;;26.33;52.18
54850;BME280;47660;51.334;12.396;2023-10-08T02:23:16;100566.16;;;25.86;53.39
54850;BME280;47660;51.334;12.396;2023-10-08T02:25:43;100565.59;;;25.76;53.51
54850;BME280;47660;51.334;12.396;2023-10-08T02:28:10;100567.97;;;26.44;51.36
54850;BME280;47660;51.334;12.396;2023-10-08T02:30:38;100584.56;;;26.06;52.57
54850;BME280;47660;51.334;12.396;2023-10-08T02:33:05;100586.50;;;26.12;51.91
54850;BME280;47660;51.334;12.396;2023-10-08T02:35:39;100596.44;;;25.98;51.98
54850;BME280;47660;51.334;12.396;2023-10-08T02:38:04;100606.66;;;25.59;53.50
54850;BME280;47660;51.334;12.396;2023-10-08T02:40:31;100616.59;;;25.37;54.25
54850;BME280;47660;51.334;12.396;2023-10-08T02:42:57;100620.78;;;25.48;54.74
54850;BME280;47660;51.334;12.396;2023-10-08T02:45:28;100612.53;;;26.36;51.67
54850;BME280;47660;51.334;12.396;2023-10-08T02:47:54;100612.44;;;25.86;52.98
54850;BME280;47660;51.334;12.396;2023-10-08T02:50:21;100623.78;;;25.90;52.44
54850;BME280;47660;51.334;12.396;2023-10-08T02:52:48;100631.75;;;25.91;52.07
54850;BME280;47660;51.334;12.396;2023-10-08T02:55:15;100640.44;;;25.35;53.02
54850;BME280;47660;51.334;12.396;2023-10-08T02:57:52;100646.53;;;26.04;50.06
54850;BME280;47660;51.334;12.396;2023-10-08T03:00:18;100658.72;;;25.11;52.27
54850;BME280;47660;51.334;12.396;2023-10-08T03:02:45;100655.94;;;25.34;51.93
54850;BME280;47660;51.334;12.396;2023-10-08T03:05:11;100646.44;;;25.30;51.53
54850;BME280;47660;51.334;12.396;2023-10-08T03:07:38;100673.03;;;24.75;53.91
54850;BME280;47660;51.334;12.396;2023-10-08T03:10:05;100653.75;;;25.00;53.18
54850;BME280;47660;51.334;12.396;2023-10-08T03:12:51;100666.66;;;24.83;52.18
54850;BME280;47660;51.334;12.396;2023-10-08T03:15:16;100668.22;;;25.75;49.71
54850;BME280;47660;51.334;12.396;2023-10-08T03:17:53;100669.25;;;25.59;50.14
54850;BME280;47660;51.334;12.396;2023-10-08T03:20:20;100693.06;;;24.74;53.63
54850;BME280;47660;51.334;12.396;2023-10-08T03:22:56;100683.91;;;25.73;51.55
54850;BME280;47660;51.334;12.396;2023-10-08T03:25:22;100683.72;;;25.60;50.49
54850;BME280;47660;51.334;12.396;2023-10-08T03:27:49;100690.88;;;25.61;50.59
54850;BME280;47660;51.334;12.396;2023-10-08T03:30:15;100685.81;;;26.09;48.59
54850;BME280;47660;51.334;12.396;2023-10-08T03:32:42;100673.44;;;25.92;49.81
54850;BME280;47660;51.334;12.396;2023-10-08T03:35:09;100682.75;;;25.38;51.02
54850;BME280;47660;51.334;12.396;2023-10-08T03:37:38;100685.53;;;26.04;49.30
54850;BME280;47660;51.334;12.396;2023-10-08T03:40:07;100694.22;;;25.78;49.67
54850;BME280;47660;51.334;12.396;2023-10-08T03:42:49;100708.41;;;24.90;51.75
54850;BME280;47660;51.334;12.396;2023-10-08T03:45:15;100703.63;;;24.92;52.49
54850;BME280;47660;51.334;12.396;2023-10-08T03:47:48;100701.00;;;25.52;49.44
54850;BME280;47660;51.334;12.396;2023-10-08T03:50:28;100705.34;;;25.08;50.01
54850;BME280;47660;51.334;12.396;2023-10-08T03:53:05;100700.34;;;24.50;52.62
54850;BME280;47660;51.334;12.396;2023-10-08T03:55:36;100691.75;;;25.08;50.03
54850;BME280;47660;51.334;12.396;2023-10-08T03:58:04;100684.72;;;25.89;47.36
54850;BME280;47660;51.334;12.396;2023-10-08T04:00:29;100682.31;;;25.64;47.76
54850;BME280;47660;51.334;12.396;2023-10-08T04:02:57;100697.94;;;25.17;49.47
54850;BME280;47660;51.334;12.396;2023-10-08T04:05:26;100693.66;;;25.68;49.00
54850;BME280;47660;51.334;12.396;2023-10-08T04:08:08;100694.00;;;25.19;49.84
54850;BME280;47660;51.334;12.396;2023-10-08T04:10:46;100713.22;;;25.33;49.23
54850;BME280;47660;51.334;12.396;2023-10-08T04:13:11;100706.13;;;24.94;50.31
54850;BME280;47660;51.334;12.396;2023-10-08T04:15:40;100703.72;;;25.52;48.58
54850;BME280;47660;51.334;12.396;2023-10-08T04:18:09;100697.22;;;24.85;50.67
54850;BME280;47660;51.334;12.396;2023-10-08T04:20:35;100718.16;;;25.53;48.42
54850;BME280;47660;51.334;12.396;2023-10-08T04:23:05;100709.81;;;26.36;46.79
54850;BME280;47660;51.334;12.396;2023-10-08T04:25:32;100743.16;;;25.33;48.84
54850;BME280;47660;51.334;12.396;2023-10-08T04:27:59;100750.84;;;25.98;47.65
54850;BME280;47660;51.334;12.396;2023-10-08T04:30:34;100764.44;;;25.83;48.25
54850;BME280;47660;51.334;12.396;2023-10-08T04:33:04;100769.13;;;25.44;49.06
54850;BME280;47660;51.334;12.396;2023-10-08T04:35:37;100778.81;;;26.21;47.64
54850;BME280;47660;51.334;12.396;2023-10-08T04:38:10;100784.69;;;24.88;49.46
54850;BME280;47660;51.334;12.396;2023-10-08T04:40:36;100783.16;;;24.62;50.74
54850;BME280;47660;51.334;12.396;2023-10-08T04:43:13;100769.91;;;24.59;50.79
54850;BME280;47660;51.334;12.396;2023-10-08T04:45:40;100756.09;;;24.69;50.56
54850;BME280;47660;51.334;12.396;2023-10-08T04:48:06;100777.84;;;24.38;50.82
54850;BME280;47660;51.334;12.396;2023-10-08T04:50:35;100782.88;;;24.17;53.98
54850;BME280;47660;51.334;12.396;2023-10-08T04:53:03;100787.44;;;24.25;53.08
54850;BME280;47660;51.334;12.396;2023-10-08T04:55:35;100783.25;;;24.77;50.80
54850;BME280;47660;51.334;12.396;2023-10-08T04:58:06;100785.00;;;24.94;49.86
54850;BME280;47660;51.334;12.396;2023-10-08T05:00:44;100793.28;;;24.45;51.09
54850;BME280;47660;51.334;12.396;2023-10-08T05:03:21;100789.69;;;24.45;51.62
54850;BME280;47660;51.334;12.396;2023-10-08T05:05:57;100806.66;;;24.47;49.88
54850;BME280;47660;51.334;12.396;2023-10-08T05:08:31;100796.53;;;24.72;49.57
54850;BME280;47660;51.334;12.396;2023-10-08T05:11:19;100798.66;;;24.22;50.71
54850;BME280;47660;51.334;12.396;2023-10-08T05:14:01;100786.53;;;24.96;48.50
54850;BME280;47660;51.334;12.396;2023-10-08T05:16:41;100782.28;;;25.32;47.47
54850;BME280;47660;51.334;12.396;2023-10-08T05:19:25;100807.41;;;25.19;47.38
54850;BME280;47660;51.334;12.396;2023-10-08T05:22:12;100823.72;;;25.19;48.45
54850;BME280;47660;51.334;12.396;2023-10-08T05:24:47;100820.00;;;25.58;47.98
54850;BME280;47660;51.334;12.396;2023-10-08T05:27:39;100814.59;;;26.03;46.87
54850;BME280;47660;51.334;12.396;2023-10-08T05:30:18;100827.66;;;24.93;48.45
54850;BME280;47660;51.334;12.396;2023-10-08T05:33:03;100827.63;;;25.01;49.11
54850;BME280;47660;51.334;12.396;2023-10-08T05:35:42;100834.38;;;25.52;48.01
54850;BME280;47660;51.334;12.396;2023-10-08T05:38:08;100857.44;;;25.56;46.79
54850;BME280;47660;51.334;12.396;2023-10-08T05:40:53;100873.19;;;24.59;48.52
54850;BME280;47660;51.334;12.396;2023-10-08T05:43:24;100884.59;;;24.55;49.12
54850;BME280;47660;51.334;12.396;2023-10-08T05:46:18;100894.13;;;24.51;49.10
54850;BME280;47660;51.334;12.396;2023-10-08T05:48:54;100888.84;;;25.20;48.15
54850;BME280;47660;51.334;12.396;2023-10-08T05:51:41;100868.38;;;24.78;48.88
54850;BME280;47660;51.334;12.396;2023-10-08T05:54:24;100861.38;;;25.30;47.66
54850;BME280;47660;51.334;12.396;2023-10-08T05:57:10;100889.25;;;25.09;47.43
54850;BME280;47660;51.334;12.396;2023-10-08T05:59:36;100878.25;;;25.26;47.05
54850;BME280;47660;51.334;12.396;2023-10-08T06:02:40;100904.78;;;25.00;47.68
54850;BME280;47660;51.334;12.396;2023-10-08T06:05:07;100914.50;;;24.55;46.46
54850;BME280;47660;51.334;12.396;2023-10-08T06:07:38;100901.78;;;24.87;44.25
54850;BME280;47660;51.334;12.396;2023-10-08T06:10:13;100898.38;;;25.16;44.03
54850;BME280;47660;51.334;12.396;2023-10-08T06:13:00;100897.56;;;25.77;44.12
54850;BME280;47660;51.334;12.396;2023-10-08T06:15:43;100903.09;;;25.69;44.42
54850;BME280;47660;51.334;12.396;2023-10-08T06:18:32;100922.66;;;25.18;45.03
54850;BME280;47660;51.334;12.396;2023-10-08T06:21:00;100933.75;;;25.48;44.50
54850;BME280;47660;51.334;12.396;2023-10-08T06:23:27;100934.47;;;25.33;44.35
54850;BME280;47660;51.334;12.396;2023-10-08T06:25:54;100928.13;;;25.18;43.58
54850;BME280;47660;51.334;12.396;2023-10-08T06:28:40;100939.81;;;25.27;42.88
54850;BME280;47660;51.334;12.396;2023-10-08T06:31:07;100938.84;;;25.19;43.56
54850;BME280;47660;51.334;12.396;2023-10-08T06:33:37;100943.06;;;25.22;44.33
54850;BME280;47660;51.334;12.396;2023-10-08T06:36:03;100946.31;;;25.17;44.55
54850;BME280;47660;51.334;12.396;2023-10-08T06:38:45;100951.06;;;25.24;45.12
54850;BME280;47660;51.334;12.396;2023-10-08T06:41:14;100952.03;;;24.51;46.53
54850;BME280;47660;51.334;12.396;2023-10-08T06:43:44;100948.97;;;24.54;46.86
54850;BME280;47660;51.334;12.396;2023-10-08T06:46:28;100958.25;;;23.79;48.02
54850;BME280;47660;51.334;12.396;2023-10-08T06:49:02;100947.41;;;24.60;46.19
54850;BME280;47660;51.334;12.396;2023-10-08T06:51:28;100950.34;;;24.98;45.29
54850;BME280;47660;51.334;12.396;2023-10-08T06:53:55;100955.06;;;24.73;45.96
54850;BME280;47660;51.334;12.396;2023-10-08T06:56:21;100982.34;;;24.15;47.17
54850;BME280;47660;51.334;12.396;2023-10-08T06:58:48;100987.53;;;24.50;46.57
54850;BME280;47660;51.334;12.396;2023-10-08T07:01:17;100990.41;;;24.48;47.11
54850;BME280;47660;51.334;12.396;2023-10-08T07:03:54;100998.44;;;24.41;47.52
54850;BME280;47660;51.334;12.396;2023-10-08T07:06:28;101002.84;;;23.84;48.32
54850;BME280;47660;51.334;12.396;2023-10-08T07:08:57;101009.22;;;24.83;46.00
54850;BME280;47660;51.334;12.396;2023-10-08T07:11:25;101015.03;;;25.11;45.89
54850;BME280;47660;51.334;12.396;2023-10-08T07:13:54;101019.75;;;24.69;46.39
54850;BME280;47660;51.334;12.396;2023-10-08T07:16:20;101019.19;;;24.90;45.60
54850;BME280;47660;51.334;12.396;2023-10-08T07:18:46;101035.84;;;24.96;45.20
54850;BME280;47660;51.334;12.396;2023-10-08T07:21:18;101027.88;;;24.86;45.44
54850;BME280;47660;51.334;12.396;2023-10-08T07:23:44;101021.09;;;24.65;45.42
54850;BME280;47660;51.334;12.396;2023-10-08T07:26:25;101021.31;;;25.12;44.72
54850;BME280;47660;51.334;12.396;2023-10-08T07:28:51;101034.00;;;24.71;44.66
54850;BME280;47660;51.334;12.396;2023-10-08T07:31:22;101036.31;;;24.26;45.46
54850;BME280;47660;51.334;12.396;2023-10-08T07:33:54;101050.56;;;24.28;44.77
54850;BME280;47660;51.334;12.396;2023-10-08T07:36:23;101067.97;;;23.76;44.78
54850;BME280;47660;51.334;12.396;2023-10-08T07:38:49;101079.75;;;23.34;44.69
54850;BME280;47660;51.334;12.396;2023-10-08T07:41:14;101096.13;;;23.58;44.14
54850;BME280;47660;51.334;12.396;2023-10-08T07:43:44;101102.19;;;23.52;44.63
54850;BME280;47660;51.334;12.396;2023-10-08T07:46:21;101099.44;;;24.53;43.13
54850;BME280;47660;51.334;12.396;2023-10-08T07:48:47;101093.59;;;23.73;44.71
54850;BME280;47660;51.334;12.396;2023-10-08T07:51:14;101100.16;;;24.72;43.27
54850;BME280;47660;51.334;12.396;2023-10-08T07:53:39;101090.63;;;24.51;43.25
54850;BME280;47660;51.334;12.396;2023-10-08T07:56:07;101074.66;;;24.73;43.11
54850;BME280;47660;51.334;12.396;2023-10-08T07:58:33;101086.38;;;24.73;42.71
54850;BME280;47660;51.334;12.396;2023-10-08T08:01:06;101102.38;;;25.25;42.19
54850;BME280;47660;51.334;12.396;2023-10-08T08:03:35;101093.47;;;25.31;42.22
54850;BME280;47660;51.334;12.396;2023-10-08T08:06:05;101091.78;;;25.30;41.84
54850;BME280;47660;51.334;12.396;2023-10-08T08:08:32;101108.09;;;24.90;42.06
54850;BME280;47660;51.334;12.396;2023-10-08T08:10:58;101099.28;;;24.55;42.41
54850;BME280;47660;51.334;12.396;2023-10-08T08:13:31;101104.50;;;24.98;41.40
54850;BME280;47660;51.334;12.396;2023-10-08T08:15:56;101122.91;;;25.35;40.93
54850;BME280;47660;51.334;12.396;2023-10-08T08:18:26;101130.97;;;25.92;40.32
54850;BME280;47660;51.334;12.396;2023-10-08T08:20:58;101136.09;;;25.07;41.04
54850;BME280;47660;51.334;12.396;2023-10-08T08:23:27;101142.78;;;25.44;40.20
54850;BME280;47660;51.334;12.396;2023-10-08T08:25:52;101146.09;;;25.71;40.62
54850;BME280;47660;51.334;12.396;2023-10-08T08:28:36;101143.75;;;25.60;39.47
54850;BME280;47660;51.334;12.396;2023-10-08T08:31:03;101141.44;;;26.03;39.34
54850;BME280;47660;51.334;12.396;2023-10-08T08:33:30;101123.88;;;25.83;39.27
54850;BME280;47660;51.334;12.396;2023-10-08T08:36:16;101136.97;;;25.56;39.55
54850;BME280;47660;51.334;12.396;2023-10-08T08:38:41;101130.84;;;25.54;39.51
54850;BME280;47660;51.334;12.396;2023-10-08T08:41:07;101147.00;;;25.87;39.65
54850;BME280;47660;51.334;12.396;2023-10-08T08:43:35;101133.00;;;26.45;38.96
54850;BME280;47660;51.334;12.396;2023-10-08T08:46:03;101143.03;;;26.67;39.13
54850;BME280;47660;51.334;12.396;2023-10-08T08:48:33;101140.06;;;26.54;38.87
54850;BME280;47660;51.334;12.396;2023-10-08T08:50:59;101152.59;;;26.25;38.93
54850;BME280;47660;51.334;12.396;2023-10-08T08:53:25;101157.22;;;26.16;38.90
54850;BME280;47660;51.334;12.396;2023-10-08T08:55:51;101157.81;;;26.50;38.90
54850;BME280;47660;51.334;12.396;2023-10-08T08:58:19;101153.06;;;25.97;39.23
54850;BME280;47660;51.334;12.396;2023-10-08T09:00:46;101148.25;;;26.92;37.96
54850;BME280;47660;51.334;12.396;2023-10-08T09:03:12;101141.00;;;26.84;37.61
54850;BME280;47660;51.334;12.396;2023-10-08T09:05:38;101149.78;;;27.10;37.47
54850;BME280;47660;51.334;12.396;2023-10-08T09:08:06;101147.69;;;27.57;36.67
54850;BME280;47660;51.334;12.396;2023-10-08T09:10:34;101165.28;;;27.69;36.98
54850;BME280;47660;51.334;12.396;2023-10-08T09:13:04;101165.84;;;27.80;36.76
54850;BME280;47660;51.334;12.396;2023-10-08T09:15:31;101167.72;;;27.79;36.61
54850;BME280;47660;51.334;12.396;2023-10-08T09:17:57;101173.13;;;27.42;36.09
54850;BME280;47660;51.334;12.396;2023-10-08T09:20:26;101180.41;;;28.24;35.52
54850;BME280;47660;51.334;12.396;2023-10-08T09:23:08;101171.41;;;28.73;34.84
54850;BME280;47660;51.334;12.396;2023-10-08T09:25:37;101173.66;;;28.05;35.49
54850;BME280;47660;51.334;12.396;2023-10-08T09:28:02;101173.47;;;28.21;35.18
54850;BME280;47660;51.334;12.396;2023-10-08T09:30:35;101182.13;;;27.73;36.11
54850;BME280;47660;51.334;12.396;2023-10-08T09:33:07;101190.31;;;28.25;35.88
54850;BME280;47660;51.334;12.396;2023-10-08T09:35:33;101190.66;;;28.00;36.00
54850;BME280;47660;51.334;12.396;2023-10-08T09:38:02;101190.44;;;28.01;36.15
54850;BME280;47660;51.334;12.396;2023-10-08T09:40:27;101197.44;;;26.37;37.92
54850;BME280;47660;51.334;12.396;2023-10-08T09:42:54;101199.66;;;27.19;37.17
54850;BME280;47660;51.334;12.396;2023-10-08T09:45:20;101198.69;;;27.11;37.64
54850;BME280;47660;51.334;12.396;2023-10-08T09:47:50;101192.69;;;27.46;37.06
54850;BME280;47660;51.334;12.396;2023-10-08T09:50:21;101198.53;;;27.43;37.27
54850;BME280;47660;51.334;12.396;2023-10-08T09:55:21;101210.25;;;26.98;37.22
54850;BME280;47660;51.334;12.396;2023-10-08T09:57:47;101210.94;;;27.31;36.87
54850;BME280;47660;51.334;12.396;2023-10-08T10:00:16;101217.97;;;26.95;37.29
54850;BME280;47660;51.334;12.396;2023-10-08T10:02:44;101226.94;;;27.04;37.93
54850;BME280;47660;51.334;12.396;2023-10-08T10:05:13;101229.78;;;27.40;37.33
54850;BME280;47660;51.334;12.396;2023-10-08T10:07:47;101237.03;;;27.18;37.71
54850;BME280;47660;51.334;12.396;2023-10-08T10:10:27;101229.63;;;27.57;36.59
54850;BME280;47660;51.334;12.396;2023-10-08T10:12:52;101235.78;;;26.59;37.75
54850;BME280;47660;51.334;12.396;2023-10-08T10:15:21;101233.56;;;27.39;37.02
54850;BME280;47660;51.334;12.396;2023-10-08T10:17:47;101246.09;;;26.95;37.40
54850;BME280;47660;51.334;12.396;2023-10-08T10:20:14;101247.34;;;27.08;37.25
54850;BME280;47660;51.334;12.396;2023-10-08T10:22:39;101250.13;;;27.53;36.17
54850;BME280;47660;51.334;12.396;2023-10-08T10:25:07;101256.50;;;28.05;35.48
54850;BME280;47660;51.334;12.396;2023-10-08T10:30:16;101249.41;;;28.26;35.19
54850;BME280;47660;51.334;12.396;2023-10-08T10:32:44;101250.66;;;29.10;34.23
54850;BME280;47660;51.334;12.396;2023-10-08T10:35:14;101255.84;;;29.55;33.48
54850;BME280;47660;51.334;12.396;2023-10-08T10:37:43;101258.00;;;28.81;34.07
54850;BME280;47660;51.334;12.396;2023-10-08T10:40:12;101261.50;;;29.25;33.72
54850;BME280;47660;51.334;12.396;2023-10-08T10:42:39;101252.75;;;29.72;32.79
54850;BME280;47660;51.334;12.396;2023-10-08T10:45:18;101259.22;;;29.29;33.11
54850;BME280;47660;51.334;12.396;2023-10-08T10:48:05;101269.25;;;29.78;33.04
54850;BME280;47660;51.334;12.396;2023-10-08T10:50:46;101271.69;;;30.91;31.80
54850;BME280;47660;51.334;12.396;2023-10-08T10:53:32;101263.44;;;31.45;31.17
54850;BME280;47660;51.334;12.396;2023-10-08T10:55:59;101267.38;;;31.62;30.39
54850;BME280;47660;51.334;12.396;2023-10-08T10:58:34;101262.81;;;31.42;30.07
54850;BME280;47660;51.334;12.396;2023-10-08T11:01:05;101262.50;;;30.36;31.30
54850;BME280;47660;51.334;12.396;2023-10-08T11:03:33;101262.25;;;30.18;31.40
54850;BME280;47660;51.334;12.396;2023-10-08T11:06:00;101263.13;;;30.38;31.06
54850;BME280;47660;51.334;12.396;2023-10-08T11:08:31;101269.69;;;29.89;31.58
54850;BME280;47660;51.334;12.396;2023-10-08T11:11:00;101255.28;;;30.15;31.21
54850;BME280;47660;51.334;12.396;2023-10-08T11:13:32;101254.31;;;30.43;31.00
54850;BME280;47660;51.334;12.396;2023-10-08T11:16:04;101262.19;;;31.00;30.61
54850;BME280;47660;51.334;12.396;2023-10-08T11:18:29;101254.16;;;31.12;30.27
54850;BME280;47660;51.334;12.396;2023-10-08T11:21:06;101256.56;;;32.33;28.77
54850;BME280;47660;51.334;12.396;2023-10-08T11:26:09;101251.81;;;31.42;30.23
54850;BME280;47660;51.334;12.396;2023-10-08T11:28:35;101253.22;;;31.72;29.05
54850;BME280;47660;51.334;12.396;2023-10-08T11:31:04;101241.78;;;34.10;26.59
54850;BME280;47660;51.334;12.396;2023-10-08T11:33:38;101237.09;;;35.19;25.63
54850;BME280;47660;51.334;12.396;2023-10-08T11:36:05;101229.69;;;36.60;24.51
54850;BME280;47660;51.334;12.396;2023-10-08T11:38:55;101224.00;;;39.10;21.41
54850;BME280;47660;51.334;12.396;2023-10-08T11:41:28;101215.00;;;40.35;20.15
54850;BME280;47660;51.334;12.396;2023-10-08T11:44:07;101225.16;;;39.14;20.64
54850;BME280;47660;51.334;12.396;2023-10-08T11:46:38;101221.31;;;39.30;20.61
54850;BME280;47660;51.334;12.396;2023-10-08T11:49:09;101221.66;;;40.96;19.35
54850;BME280;47660;51.334;12.396;2023-10-08T11:51:43;101210.13;;;41.39;18.27
54850;BME280;47660;51.334;12.396;2023-10-08T11:54:09;101201.31;;;41.71;18.18
54850;BME280;47660;51.334;12.396;2023-10-08T11:56:37;101210.91;;;39.00;19.64
54850;BME280;47660;51.334;12.396;2023-10-08T11:59:03;101202.50;;;40.68;18.86
54850;BME280;47660;51.334;12.396;2023-10-08T12:01:34;101203.16;;;41.97;17.42
54850;BME280;47660;51.334;12.396;2023-10-08T12:04:02;101203.56;;;42.20;17.43
54850;BME280;47660;51.334;12.396;2023-10-08T12:06:28;101199.09;;;41.73;17.29
54850;BME280;47660;51.334;12.396;2023-10-08T12:08:58;101211.91;;;40.16;18.81
54850;BME280;47660;51.334;12.396;2023-10-08T12:11:27;101220.22;;;39.31;20.04
54850;BME280;47660;51.334;12.396;2023-10-08T12:13:58;101208.03;;;40.48;18.73
54850;BME280;47660;51.334;12.396;2023-10-08T12:16:25;101218.16;;;37.19;20.82
54850;BME280;47660;51.334;12.396;2023-10-08T12:18:55;101220.69;;;34.46;23.86
54850;BME280;47660;51.334;12.396;2023-10-08T12:21:25;101215.66;;;33.19;24.98
54850;BME280;47660;51.334;12.396;2023-10-08T12:23:50;101216.41;;;32.57;26.28
54850;BME280;47660;51.334;12.396;2023-10-08T12:26:17;101219.59;;;32.86;26.25
54850;BME280;47660;51.334;12.396;2023-10-08T12:28:46;101201.19;;;32.80;25.77
54850;BME280;47660;51.334;12.396;2023-10-08T12:31:17;101210.38;;;31.44;27.08
54850;BME280;47660;51.334;12.396;2023-10-08T12:33:47;101209.19;;;30.93;27.69
54850;BME280;47660;51.334;12.396;2023-10-08T12:36:12;101194.41;;;30.80;27.72
54850;BME280;47660;51.334;12.396;2023-10-08T12:38:39;101186.78;;;31.03;26.96
54850;BME280;47660;51.334;12.396;2023-10-08T12:41:11;101195.44;;;31.26;27.06
54850;BME280;47660;51.334;12.396;2023-10-08T12:43:41;101192.69;;;31.33;27.98
54850;BME280;47660;51.334;12.396;2023-10-08T12:46:18;101195.09;;;35.46;22.97
54850;BME280;47660;51.334;12.396;2023-10-08T12:48:46;101193.06;;;36.92;22.22
54850;BME280;47660;51.334;12.396;2023-10-08T12:51:18;101197.38;;;37.22;21.53
54850;BME280;47660;51.334;12.396;2023-10-08T12:53:43;101174.97;;;37.23;21.28
54850;BME280;47660;51.334;12.396;2023-10-08T12:56:16;101181.88;;;38.85;20.37
54850;BME280;47660;51.334;12.396;2023-10-08T12:58:42;101180.66;;;36.43;21.95
54850;BME280;47660;51.334;12.396;2023-10-08T13:01:14;101166.00;;;37.60;21.27
54850;BME280;47660;51.334;12.396;2023-10-08T13:03:43;101176.91;;;36.66;21.98
54850;BME280;47660;51.334;12.396;2023-10-08T13:06:20;101176.75;;;34.45;24.47
54850;BME280;47660;51.334;12.396;2023-10-08T13:08:49;101175.69;;;32.92;25.46